createdAt,value
2018-11-29T00:00:27.562Z,98.40
2018-11-29T00:02:56.672Z,98.50
2018-11-29T00:05:31.639Z,98.30
2018-11-29T00:08:06.834Z,98.50
2018-11-29T00:13:04.884Z,98.50
2018-11-29T00:15:34.203Z,98.40
2018-11-29T00:18:03.493Z,98.40
2018-11-29T00:20:32.769Z,98.40
2018-11-29T00:23:01.828Z,98.40
2018-11-29T00:25:30.851Z,98.20
2018-11-29T00:27:59.820Z,98.30
2018-11-29T00:30:28.884Z,98.40
2018-11-29T00:35:26.715Z,97.90
2018-11-29T00:37:55.781Z,98.00
2018-11-29T00:42:53.834Z,98.40
2018-11-29T00:45:23.943Z,98.20
2018-11-29T00:47:53.145Z,98.50
2018-11-29T00:50:22.480Z,98.50
2018-11-29T00:52:51.736Z,98.30
2018-11-29T00:55:21.661Z,98.50
2018-11-29T01:00:23.410Z,98.60
2018-11-29T01:02:52.576Z,98.30
2018-11-29T01:05:21.677Z,98.30
2018-11-29T01:15:20.964Z,98.30
2018-11-29T01:17:50.608Z,98.30
2018-11-29T01:20:21.246Z,98.40
2018-11-29T01:22:50.365Z,98.40
2018-11-29T01:27:49.124Z,98.30
2018-11-29T01:30:19.249Z,98.20
2018-11-29T01:32:48.332Z,98.50
2018-11-29T01:35:18.333Z,98.30
2018-11-29T01:37:47.495Z,98.30
2018-11-29T01:40:18.364Z,98.40
2018-11-29T01:42:49.513Z,98.40
2018-11-29T01:45:18.661Z,98.40
2018-11-29T01:47:47.724Z,97.90
2018-11-29T01:52:45.292Z,98.50
2018-11-29T01:55:14.377Z,98.50
2018-11-29T01:57:43.436Z,98.30
2018-11-29T02:00:13.777Z,98.40
2018-11-29T02:02:42.907Z,98.50
2018-11-29T02:07:40.855Z,98.20
2018-11-29T02:10:16.672Z,98.30
2018-11-29T02:15:14.327Z,98.40
2018-11-29T02:17:43.414Z,98.10
2018-11-29T02:20:17.526Z,98.50
2018-11-29T02:22:46.976Z,98.00
2018-11-29T02:27:44.574Z,98.10
2018-11-29T02:30:17.787Z,98.70
2018-11-29T02:32:47.176Z,98.30
2018-11-29T02:37:45.131Z,98.10
2018-11-29T02:40:15.440Z,98.30
2018-11-29T02:42:44.995Z,98.70
2018-11-29T02:45:16.311Z,98.20
2018-11-29T02:47:45.436Z,98.40
2018-11-29T02:50:17.349Z,98.30
2018-11-29T02:52:46.544Z,98.20
2018-11-29T02:57:44.266Z,98.80
2018-11-29T03:00:19.625Z,98.50
2018-11-29T03:05:17.810Z,98.40
2018-11-29T03:07:46.836Z,98.50
2018-11-29T03:12:48.891Z,99.00
2018-11-29T03:15:17.925Z,98.40
2018-11-29T03:17:46.978Z,98.80
2018-11-29T03:22:44.575Z,98.70
2018-11-29T03:25:15.555Z,98.30
2018-11-29T03:32:43.594Z,99.00
2018-11-29T03:35:13.381Z,98.40
2018-11-29T03:37:42.450Z,98.30
2018-11-29T03:40:15.289Z,98.40
2018-11-29T03:45:15.095Z,98.90
2018-11-29T03:50:17.813Z,98.70
2018-11-29T03:52:47.154Z,98.60
2018-11-29T04:00:17.465Z,98.60
2018-11-29T04:02:48.106Z,98.80
2018-11-29T04:05:17.229Z,98.50
2018-11-29T04:12:44.159Z,98.40
2018-11-29T04:15:14.393Z,98.20
2018-11-29T04:17:43.716Z,98.50
2018-11-29T04:22:45.145Z,98.50
2018-11-29T04:27:43.274Z,98.40
2018-11-29T04:32:41.513Z,98.30
2018-11-29T04:35:11.126Z,98.20
2018-11-29T04:37:40.226Z,98.70
2018-11-29T04:40:12.748Z,98.70
2018-11-29T04:42:41.856Z,98.30
2018-11-29T04:47:40.750Z,98.70
2018-11-29T04:52:38.732Z,98.50
2018-11-29T04:55:08.916Z,98.70
2018-11-29T04:57:39.323Z,98.70
2018-11-29T05:00:16.001Z,98.50
2018-11-29T05:02:45.247Z,98.80
2018-11-29T05:07:43.304Z,98.90
2018-11-29T05:10:16.270Z,98.60
2018-11-29T05:12:46.219Z,98.30
2018-11-29T05:15:15.395Z,98.90
2018-11-29T05:25:12.530Z,98.90
2018-11-29T05:27:41.598Z,98.40
2018-11-29T05:35:11.246Z,98.50
2018-11-29T05:37:40.303Z,98.80
2018-11-29T05:40:11.742Z,98.90
2018-11-29T05:45:10.536Z,99.30
2018-11-29T05:47:39.590Z,99.40
2018-11-29T05:50:10.137Z,99.50
2018-11-29T05:52:39.328Z,99.60
2018-11-29T05:57:38.049Z,99.40
2018-11-29T06:02:37.906Z,99.90
2018-11-29T06:05:08.286Z,99.80
2018-11-29T06:07:37.448Z,99.80
2018-11-29T06:10:06.631Z,99.60
2018-11-29T06:12:35.633Z,99.90
2018-11-29T06:15:05.497Z,99.90
2018-11-29T06:17:34.568Z,99.90
2018-11-29T06:22:32.441Z,99.90
2018-11-29T06:27:30.063Z,99.90
2018-11-29T06:29:59.048Z,99.90
2018-11-29T06:32:28.107Z,99.90
2018-11-29T06:34:57.204Z,99.90
2018-11-29T06:39:54.961Z,99.90
2018-11-29T06:42:23.994Z,99.90
2018-11-29T06:44:52.980Z,99.90
2018-11-29T06:47:21.953Z,99.90
2018-11-29T06:52:20.662Z,99.90
2018-11-29T06:54:49.696Z,99.90
2018-11-29T06:57:18.702Z,99.90
2018-11-29T06:59:47.820Z,99.90
2018-11-29T07:07:17.119Z,99.90
2018-11-29T07:14:43.450Z,99.90
2018-11-29T07:17:12.485Z,99.50
2018-11-29T07:22:10.094Z,99.50
2018-11-29T07:24:39.121Z,99.60
2018-11-29T07:27:08.095Z,99.60
2018-11-29T07:29:37.063Z,99.30
2018-11-29T07:34:34.993Z,99.60
2018-11-29T07:37:04.040Z,99.60
2018-11-29T07:44:30.333Z,99.30
2018-11-29T07:49:28.108Z,99.30
2018-11-29T07:51:57.056Z,99.10
2018-11-29T07:56:54.673Z,99.00
2018-11-29T07:59:23.711Z,98.90
2018-11-29T08:01:53.019Z,99.10
2018-11-29T08:04:22.089Z,98.70
2018-11-29T08:09:19.852Z,98.70
2018-11-29T08:11:48.788Z,98.80
2018-11-29T08:14:17.798Z,98.80
2018-11-29T08:16:46.844Z,98.10
2018-11-29T08:19:15.855Z,98.10
2018-11-29T08:24:13.511Z,97.50
2018-11-29T08:26:42.515Z,97.10
2018-11-29T08:29:11.572Z,96.90
2018-11-29T08:34:09.207Z,96.70
2018-11-29T08:39:09.377Z,96.30
2018-11-29T08:41:38.400Z,95.80
2018-11-29T08:46:35.980Z,96.10
2018-11-29T08:49:05.163Z,95.60
2018-11-29T08:51:34.223Z,95.50
2018-11-29T08:54:03.181Z,95.40
2018-11-29T08:56:32.184Z,94.30
2018-11-29T08:59:01.307Z,94.70
2018-11-29T09:01:30.401Z,94.40
2018-11-29T09:04:00.021Z,94.80
2018-11-29T09:06:29.214Z,94.30
2018-11-29T09:08:58.510Z,94.90
2018-11-29T09:11:27.519Z,95.40
2018-11-29T09:13:58.306Z,94.40
2018-11-29T09:16:27.831Z,94.00
2018-11-29T09:18:56.964Z,94.20
2018-11-29T09:21:26.196Z,95.60
2018-11-29T09:26:24.006Z,94.10
2018-11-29T09:28:53.164Z,94.10
2018-11-29T09:31:22.097Z,94.10
2018-11-29T09:33:51.195Z,93.90
2018-11-29T09:36:21.822Z,93.70
2018-11-29T09:38:49.445Z,93.20
2018-11-29T09:41:18.561Z,92.70
2018-11-29T09:43:47.793Z,93.90
2018-11-29T09:46:16.885Z,93.50
2018-11-29T09:51:14.475Z,94.00
2018-11-29T09:53:43.467Z,93.90
2018-11-29T09:56:12.513Z,93.40
2018-11-29T09:58:43.205Z,94.40
2018-11-29T10:01:12.457Z,93.10
2018-11-29T10:03:41.456Z,93.50
2018-11-29T10:06:10.488Z,93.20
2018-11-29T10:08:39.566Z,93.30
2018-11-29T10:11:08.609Z,93.60
2018-11-29T10:13:37.658Z,93.70
2018-11-29T10:16:06.809Z,93.70
2018-11-29T10:18:35.904Z,94.10
2018-11-29T10:21:04.946Z,93.40
2018-11-29T10:23:34.923Z,93.00
2018-11-29T10:26:03.986Z,92.50
2018-11-29T10:28:32.982Z,93.20
2018-11-29T10:31:02.916Z,92.90
2018-11-29T10:33:32.067Z,93.30
2018-11-29T10:36:01.142Z,94.50
2018-11-29T10:38:30.170Z,93.80
2018-11-29T10:40:59.317Z,92.80
2018-11-29T10:43:28.497Z,93.20
2018-11-29T10:45:57.577Z,93.70
2018-11-29T10:48:26.545Z,93.40
2018-11-29T10:50:55.576Z,93.50
2018-11-29T10:53:24.632Z,93.90
2018-11-29T10:55:53.635Z,94.40
2018-11-29T10:58:22.669Z,94.40
2018-11-29T11:00:57.147Z,94.50
2018-11-29T11:03:26.177Z,94.60
2018-11-29T11:05:55.124Z,93.40
2018-11-29T11:08:24.085Z,94.10
2018-11-29T11:10:53.059Z,94.30
2018-11-29T11:13:22.136Z,94.50
2018-11-29T11:15:51.154Z,94.30
2018-11-29T11:18:20.367Z,93.90
2018-11-29T11:20:49.370Z,93.90
2018-11-29T11:23:18.374Z,94.60
2018-11-29T11:25:47.429Z,93.90
2018-11-29T11:28:16.342Z,93.60
2018-11-29T11:30:45.718Z,93.20
2018-11-29T11:33:14.753Z,93.50
2018-11-29T11:38:12.793Z,92.80
2018-11-29T11:40:41.895Z,93.40
2018-11-29T11:43:11.636Z,93.10
2018-11-29T11:45:40.697Z,93.50
2018-11-29T11:48:09.680Z,92.50
2018-11-29T11:50:38.803Z,92.60
2018-11-29T11:53:09.109Z,92.50
2018-11-29T11:55:38.448Z,93.90
2018-11-29T11:58:08.163Z,94.10
2018-11-29T12:00:37.675Z,94.30
2018-11-29T12:03:12.738Z,94.20
2018-11-29T12:05:41.824Z,93.90
2018-11-29T12:08:11.015Z,93.70
2018-11-29T12:13:09.339Z,94.50
2018-11-29T12:15:38.691Z,94.30
2018-11-29T12:18:09.410Z,94.50
2018-11-29T12:20:41.802Z,94.50
2018-11-29T12:23:11.465Z,94.30
2018-11-29T12:25:41.368Z,94.60
2018-11-29T12:28:11.182Z,94.30
2018-11-29T12:30:42.937Z,94.00
2018-11-29T12:33:12.854Z,94.70
2018-11-29T12:35:43.500Z,93.90
2018-11-29T12:38:13.397Z,93.70
2018-11-29T12:40:43.235Z,93.70
2018-11-29T12:43:13.158Z,93.10
2018-11-29T12:45:43.087Z,92.80
2018-11-29T12:48:12.942Z,93.00
2018-11-29T12:50:42.970Z,93.00
2018-11-29T12:53:15.216Z,92.40
2018-11-29T12:55:48.876Z,93.00
2018-11-29T12:58:19.334Z,92.50
2018-11-29T13:00:49.242Z,93.60
2018-11-29T13:03:19.246Z,94.00
2018-11-29T13:05:49.168Z,94.10
2018-11-29T13:08:18.931Z,93.40
2018-11-29T13:10:49.874Z,93.80
2018-11-29T13:13:19.833Z,93.80
2018-11-29T13:15:49.844Z,93.80
2018-11-29T13:18:19.810Z,93.70
2018-11-29T13:20:49.788Z,94.00
2018-11-29T13:23:19.723Z,93.90
2018-11-29T13:25:49.930Z,94.10
2018-11-29T13:28:19.966Z,93.90
2018-11-29T13:30:51.010Z,94.20
2018-11-29T13:33:20.987Z,94.00
2018-11-29T13:35:51.712Z,94.10
2018-11-29T13:38:21.754Z,93.70
2018-11-29T13:40:51.745Z,94.20
2018-11-29T13:43:21.652Z,93.90
2018-11-29T13:45:51.679Z,94.50
2018-11-29T13:48:21.601Z,94.00
2018-11-29T13:50:51.700Z,93.90
2018-11-29T13:53:21.589Z,94.30
2018-11-29T13:55:51.407Z,94.20
2018-11-29T13:58:20.974Z,94.60
2018-11-29T14:00:50.473Z,94.80
2018-11-29T14:03:19.594Z,94.40
2018-11-29T14:05:48.633Z,94.80
2018-11-29T14:08:17.617Z,95.00
2018-11-29T14:10:46.707Z,95.00
2018-11-29T14:13:15.772Z,95.60
2018-11-29T14:15:45.003Z,95.80
2018-11-29T14:20:42.517Z,94.80
2018-11-29T14:23:11.602Z,94.90
2018-11-29T14:25:40.681Z,95.40
2018-11-29T14:30:52.499Z,95.40
2018-11-29T14:35:50.261Z,96.10
2018-11-29T14:38:19.308Z,95.90
2018-11-29T14:40:48.311Z,96.00
2018-11-29T14:43:17.420Z,96.00
2018-11-29T14:45:46.475Z,96.10
2018-11-29T14:48:15.494Z,96.50
2018-11-29T14:50:45.683Z,96.20
2018-11-29T14:53:14.750Z,96.30
2018-11-29T14:55:43.861Z,96.20
2018-11-29T14:58:13.919Z,96.40
2018-11-29T15:00:43.164Z,96.50
2018-11-29T15:03:14.414Z,96.50
2018-11-29T15:05:45.896Z,96.70
2018-11-29T15:08:15.018Z,96.70
2018-11-29T15:10:44.094Z,96.70
2018-11-29T15:13:13.371Z,96.70
2018-11-29T15:15:43.895Z,96.70
2018-11-29T15:18:12.904Z,97.10
2018-11-29T15:20:45.342Z,97.20
2018-11-29T15:23:16.803Z,97.10
2018-11-29T15:25:45.868Z,97.20
2018-11-29T15:28:14.940Z,97.20
2018-11-29T15:30:44.004Z,97.40
2018-11-29T15:33:13.133Z,97.80
2018-11-29T15:35:42.272Z,97.90
2018-11-29T15:38:12.165Z,97.80
2018-11-29T15:40:41.230Z,97.50
2018-11-29T15:43:13.837Z,97.90
2018-11-29T15:45:43.213Z,98.10
2018-11-29T15:48:12.342Z,98.20
2018-11-29T15:50:43.497Z,98.20
2018-11-29T15:53:13.649Z,98.20
2018-11-29T15:55:42.924Z,98.20
2018-11-29T15:58:12.004Z,98.30
2018-11-29T16:00:41.185Z,98.40
2018-11-29T16:03:10.394Z,98.40
2018-11-29T16:05:41.164Z,98.50
2018-11-29T16:08:08.595Z,98.40
2018-11-29T16:13:07.460Z,98.30
2018-11-29T16:15:36.970Z,98.30
2018-11-29T16:20:36.548Z,98.40
2018-11-29T16:23:06.525Z,98.30
2018-11-29T16:25:35.524Z,98.60
2018-11-29T16:28:05.271Z,98.60
2018-11-29T16:30:35.333Z,98.60
2018-11-29T16:33:10.374Z,98.60
2018-11-29T16:35:39.400Z,98.70
2018-11-29T16:38:08.435Z,98.70
2018-11-29T16:40:37.471Z,99.00
2018-11-29T16:43:07.322Z,99.10
2018-11-29T16:45:36.822Z,99.10
2018-11-29T16:48:06.281Z,99.10
2018-11-29T16:50:35.735Z,99.10
2018-11-29T16:53:05.235Z,99.00
2018-11-29T16:58:06.074Z,98.80
2018-11-29T17:00:35.439Z,98.80
2018-11-29T17:03:04.464Z,98.80
2018-11-29T17:05:33.670Z,99.00
2018-11-29T17:08:03.239Z,98.90
2018-11-29T17:10:32.493Z,98.90
2018-11-29T17:15:32.278Z,98.80
2018-11-29T17:18:02.481Z,99.00
2018-11-29T17:25:29.092Z,98.90
2018-11-29T17:27:58.039Z,98.80
2018-11-29T17:30:27.138Z,98.80
2018-11-29T17:32:58.251Z,98.90
2018-11-29T17:35:27.464Z,98.90
2018-11-29T17:42:56.373Z,98.80
2018-11-29T17:45:26.656Z,98.90
2018-11-29T17:48:00.020Z,98.80
2018-11-29T17:50:33.603Z,99.10
2018-11-29T17:53:08.538Z,98.70
2018-11-29T17:55:38.833Z,98.80
2018-11-29T18:00:38.967Z,98.70
2018-11-29T18:03:09.044Z,98.50
2018-11-29T18:05:38.625Z,98.60
2018-11-29T18:08:08.310Z,98.70
2018-11-29T18:10:39.776Z,98.70
2018-11-29T18:13:14.883Z,98.80
2018-11-29T18:15:45.604Z,99.00
2018-11-29T18:18:16.358Z,99.10
2018-11-29T18:20:46.266Z,99.20
2018-11-29T18:23:16.219Z,99.20
2018-11-29T18:25:46.014Z,99.00
2018-11-29T18:28:15.924Z,99.10
2018-11-29T18:33:15.209Z,99.10
2018-11-29T18:35:45.094Z,99.10
2018-11-29T18:38:18.870Z,99.20
2018-11-29T18:43:17.940Z,99.10
2018-11-29T18:45:48.860Z,99.10
2018-11-29T18:48:18.727Z,99.20
2018-11-29T18:53:17.811Z,99.30
2018-11-29T19:00:46.822Z,99.60
2018-11-29T19:03:16.811Z,99.40
2018-11-29T19:08:16.084Z,99.50
2018-11-29T19:10:45.901Z,99.60
2018-11-29T19:15:45.062Z,99.50
2018-11-29T19:18:15.122Z,99.30
2018-11-29T19:23:14.343Z,99.40
2018-11-29T19:28:13.826Z,99.20
2018-11-29T19:33:20.719Z,98.60
2018-11-29T19:35:53.019Z,98.50
2018-11-29T19:38:23.842Z,98.50
2018-11-29T19:40:53.786Z,98.30
2018-11-29T19:43:23.661Z,98.20
2018-11-29T19:45:53.773Z,98.10
2018-11-29T19:50:53.066Z,98.00
2018-11-29T19:53:25.493Z,98.10
2018-11-29T19:55:57.269Z,97.90
2018-11-29T19:58:27.374Z,97.70
2018-11-29T20:00:57.284Z,97.30
2018-11-29T20:05:56.708Z,97.30
2018-11-29T20:08:26.561Z,97.20
2018-11-29T20:10:56.505Z,97.20
2018-11-29T20:13:26.458Z,97.20
2018-11-29T20:20:55.204Z,97.30
2018-11-29T20:23:25.117Z,97.10
2018-11-29T20:25:55.811Z,97.30
2018-11-29T20:33:24.316Z,97.30
2018-11-29T20:35:54.169Z,97.20
2018-11-29T20:38:24.170Z,96.90
2018-11-29T20:43:23.313Z,97.00
2018-11-29T20:53:31.795Z,96.80
2018-11-29T20:56:01.805Z,96.90
2018-11-29T21:01:01.153Z,97.00
2018-11-29T21:06:03.322Z,97.00
2018-11-29T21:08:33.355Z,97.00
2018-11-29T21:11:03.187Z,97.10
2018-11-29T21:16:02.337Z,97.30
2018-11-29T21:21:01.710Z,97.10
2018-11-29T21:26:00.791Z,97.10
2018-11-29T21:28:30.694Z,96.90
2018-11-29T21:31:00.643Z,96.70
2018-11-29T21:35:59.987Z,97.40
2018-11-29T21:38:29.814Z,97.20
2018-11-29T21:43:29.785Z,97.10
2018-11-29T21:45:59.709Z,96.90
2018-11-29T21:50:58.828Z,97.10
2018-11-29T21:53:28.662Z,97.10
2018-11-29T21:55:58.603Z,97.10
2018-11-29T22:03:25.593Z,97.30
2018-11-29T22:05:54.687Z,96.80
2018-11-29T22:08:23.693Z,97.00
2018-11-29T22:10:52.881Z,96.80
2018-11-29T22:15:50.554Z,97.00
2018-11-29T22:18:21.444Z,97.20
2018-11-29T22:20:55.563Z,96.80
2018-11-29T22:23:24.655Z,97.10
2018-11-29T22:28:22.634Z,97.10
2018-11-29T22:33:20.199Z,97.00
2018-11-29T22:35:49.273Z,97.00
2018-11-29T22:38:18.287Z,97.00
2018-11-29T22:40:47.311Z,97.00
2018-11-29T22:43:16.240Z,97.40
2018-11-29T22:45:45.275Z,97.40
2018-11-29T22:48:14.283Z,97.20
2018-11-29T22:50:43.389Z,97.30
2018-11-29T22:53:12.358Z,97.10
2018-11-29T22:55:41.438Z,97.30
2018-11-29T22:58:10.521Z,97.20
2018-11-29T23:05:41.562Z,96.80
2018-11-29T23:10:39.230Z,97.10
2018-11-29T23:18:06.279Z,96.80
2018-11-29T23:20:35.285Z,97.60
2018-11-29T23:25:33.070Z,97.40
2018-11-29T23:30:30.856Z,97.30
2018-11-29T23:35:28.823Z,97.00
2018-11-29T23:40:26.479Z,97.00
2018-11-29T23:42:55.484Z,96.70
2018-11-29T23:47:53.167Z,96.90
2018-11-29T23:50:22.399Z,97.00
2018-11-29T23:52:51.373Z,97.10
2018-11-29T23:55:21.343Z,96.90
2018-11-29T23:57:50.415Z,97.00
